Terminal Aerodrome Forecast
Issued by NWS Flagstaff, AZ

Home | Current Version | Previous Version | Text Only | Print | Product List | Glossary On
Versions: 1 2 3 4 5 6 7 8 9 10 11 12 13 14 15 16 17 18 19 20 21 22 23
000
FTUS45 KFGZ 271746
TAFFLG
TAF
KFLG 271746Z 2718/2818 19008KT P6SM SCT060 BKN120
      TEMPO 2718/2720 VRB10G20KT 5SM -TSRA BKN040CB
     FM280200 VRB05KT P6SM SCT060=

USA.gov is the U.S. government's official web portal to all federal, state and local government web resources and services.